createdAt,value
2019-06-01T00:01:26.680Z,100356.86
2019-06-01T00:04:00.152Z,100358.37
2019-06-01T00:06:32.537Z,100363.39
2019-06-01T00:09:08.208Z,100363.69
2019-06-01T00:11:41.262Z,100356.83
2019-06-01T00:14:15.584Z,100348.13
2019-06-01T00:16:48.096Z,100347.95
2019-06-01T00:19:20.703Z,100342.06
2019-06-01T00:21:54.242Z,100339.05
2019-06-01T00:24:27.290Z,100335.53
2019-06-01T00:26:59.665Z,100339.55
2019-06-01T00:29:32.432Z,100332.19
2019-06-01T00:32:04.777Z,100333.52
2019-06-01T00:34:37.292Z,100338.12
2019-06-01T00:37:09.649Z,100337.80
2019-06-01T00:39:42.163Z,100337.48
2019-06-01T00:42:14.599Z,100332.89
2019-06-01T00:44:48.432Z,100331.22
2019-06-01T00:47:21.091Z,100331.89
2019-06-01T00:49:53.556Z,100334.55
2019-06-01T00:52:25.981Z,100337.00
2019-06-01T00:54:58.433Z,100337.00
2019-06-01T00:57:30.789Z,100339.01
2019-06-01T01:00:03.424Z,100343.09
2019-06-01T01:02:36.587Z,100342.13
2019-06-01T01:05:17.331Z,100344.61
2019-06-01T01:07:51.146Z,100347.20
2019-06-01T01:10:24.085Z,100346.39
2019-06-01T01:13:06.876Z,100348.20
2019-06-01T01:15:39.967Z,100345.86
2019-06-01T01:18:12.441Z,100344.69
2019-06-01T01:20:45.923Z,100344.22
2019-06-01T01:23:18.630Z,100340.70
2019-06-01T01:25:52.542Z,100347.06
2019-06-01T01:28:25.263Z,100343.55
2019-06-01T01:31:12.531Z,100340.04
2019-06-01T01:33:31.870Z,100344.22
2019-06-01T01:36:04.478Z,100341.00
2019-06-01T01:38:36.844Z,100334.62
2019-06-01T01:41:10.719Z,100334.28
2019-06-01T01:43:43.084Z,100333.61
2019-06-01T01:46:15.835Z,100336.95
2019-06-01T01:48:48.177Z,100338.63
2019-06-01T01:51:21.660Z,100346.99
2019-06-01T01:53:54.697Z,100351.14
2019-06-01T01:56:27.362Z,100351.01
2019-06-01T01:58:59.713Z,100353.69
2019-06-01T02:01:32.309Z,100356.36
2019-06-01T02:04:05.178Z,100349.67
2019-06-01T02:06:37.645Z,100356.41
2019-06-01T02:09:09.921Z,100354.39
2019-06-01T02:11:42.547Z,100352.72
2019-06-01T02:14:14.908Z,100351.55
2019-06-01T02:16:47.387Z,100356.94
2019-06-01T02:19:19.737Z,100354.94
2019-06-01T02:21:52.413Z,100357.01
2019-06-01T02:24:26.676Z,100349.34
2019-06-01T02:26:59.490Z,100343.98
2019-06-01T02:29:31.899Z,100343.98
2019-06-01T02:32:06.494Z,100349.87
2019-06-01T02:34:38.650Z,100345.18
2019-06-01T02:37:11.208Z,100344.84
2019-06-01T02:39:43.630Z,100335.16
2019-06-01T02:42:16.353Z,100340.16
2019-06-01T02:44:48.709Z,100339.84
2019-06-01T02:47:21.354Z,100342.33
2019-06-01T02:49:55.609Z,100348.25
2019-06-01T02:52:28.353Z,100349.45
2019-06-01T02:55:02.194Z,100338.87
2019-06-01T02:57:35.186Z,100342.41
2019-06-01T03:00:08.419Z,100336.73
2019-06-01T03:02:41.703Z,100336.27
2019-06-01T03:05:14.180Z,100334.93
2019-06-01T03:07:49.591Z,100330.20
2019-06-01T03:10:22.029Z,100331.20
2019-06-01T03:12:58.157Z,100330.70
2019-06-01T03:15:32.651Z,100329.21
2019-06-01T03:18:11.752Z,100322.48
2019-06-01T03:20:47.348Z,100320.44
2019-06-01T03:23:20.635Z,100324.48
2019-06-01T03:25:54.809Z,100329.16
2019-06-01T03:28:28.989Z,100331.33
2019-06-01T03:31:03.318Z,100330.94
2019-06-01T03:33:35.493Z,100331.59
2019-06-01T03:36:09.079Z,100332.58
2019-06-01T03:38:43.104Z,100330.04
2019-06-01T03:41:15.653Z,100326.66
2019-06-01T03:43:48.133Z,100321.45
2019-06-01T03:46:20.577Z,100322.21
2019-06-01T03:48:53.823Z,100320.69
2019-06-01T03:51:26.187Z,100320.61
2019-06-01T03:53:58.751Z,100320.23
2019-06-01T03:56:31.177Z,100320.42
2019-06-01T03:59:05.297Z,100318.64
2019-06-01T04:01:38.041Z,100318.56
2019-06-01T04:04:11.273Z,100325.27
2019-06-01T04:06:43.847Z,100325.70
2019-06-01T04:09:16.407Z,100326.67
2019-06-01T04:11:48.849Z,100330.02
2019-06-01T04:14:21.406Z,100329.86
2019-06-01T04:16:53.775Z,100332.18
2019-06-01T04:19:26.398Z,100340.81
2019-06-01T04:21:58.733Z,100343.89
2019-06-01T04:24:31.290Z,100342.50
2019-06-01T04:27:04.147Z,100344.02
2019-06-01T04:29:37.056Z,100346.94
2019-06-01T04:32:10.617Z,100352.20
2019-06-01T04:34:43.443Z,100354.09
2019-06-01T04:37:15.879Z,100349.47
2019-06-01T04:39:48.436Z,100348.53
2019-06-01T04:42:20.859Z,100353.94
2019-06-01T04:44:53.408Z,100351.58
2019-06-01T04:47:25.837Z,100351.64
2019-06-01T04:49:58.382Z,100347.05
2019-06-01T04:52:30.828Z,100342.69
2019-06-01T04:55:05.059Z,100342.23
2019-06-01T04:57:37.622Z,100336.84
2019-06-01T05:00:24.231Z,100350.20
2019-06-01T05:02:44.786Z,100341.86
2019-06-01T05:05:17.357Z,100345.18
2019-06-01T05:07:49.815Z,100350.70
2019-06-01T05:10:22.279Z,100345.82
2019-06-01T05:12:54.628Z,100343.65
2019-06-01T05:15:27.174Z,100343.63
2019-06-01T05:17:59.738Z,100345.42
2019-06-01T05:20:32.267Z,100347.27
2019-06-01T05:23:04.782Z,100338.11
2019-06-01T05:25:37.243Z,100332.81
2019-06-01T05:28:09.612Z,100343.25
2019-06-01T05:30:42.225Z,100340.93
2019-06-01T05:33:30.981Z,100338.30
2019-06-01T05:35:48.992Z,100332.61
2019-06-01T05:38:21.336Z,100335.16
2019-06-01T05:40:53.903Z,100334.69
2019-06-01T05:43:26.260Z,100340.73
2019-06-01T05:45:58.833Z,100343.74
2019-06-01T05:48:31.210Z,100345.09
2019-06-01T05:51:03.825Z,100335.47
2019-06-01T05:53:36.199Z,100333.59
2019-06-01T05:56:08.691Z,100335.94
2019-06-01T05:58:41.055Z,100330.38
2019-06-01T06:01:14.703Z,100322.45
2019-06-01T06:03:47.373Z,100325.22
2019-06-01T06:06:20.521Z,100324.45
2019-06-01T06:08:52.969Z,100331.31
2019-06-01T06:11:25.575Z,100331.30
2019-06-01T06:13:57.990Z,100319.30
2019-06-01T06:16:30.496Z,100330.14
2019-06-01T06:19:02.854Z,100323.42
2019-06-01T06:21:35.411Z,100321.99
2019-06-01T06:24:07.801Z,100321.31
2019-06-01T06:26:40.359Z,100319.58
2019-06-01T06:29:12.962Z,100324.67
2019-06-01T06:31:45.544Z,100329.94
2019-06-01T06:34:18.004Z,100329.21
2019-06-01T06:36:51.618Z,100324.68
2019-06-01T06:39:24.705Z,100324.82
2019-06-01T06:41:57.201Z,100329.05
2019-06-01T06:44:29.541Z,100328.37
2019-06-01T06:47:02.044Z,100328.55
2019-06-01T06:49:34.474Z,100328.09
2019-06-01T06:52:06.999Z,100316.17
2019-06-01T06:54:39.375Z,100327.16
2019-06-01T06:57:12.935Z,100329.59
2019-06-01T06:59:45.306Z,100320.36
2019-06-01T07:02:18.753Z,100325.30
2019-06-01T07:04:51.531Z,100326.48
2019-06-01T07:07:28.687Z,100328.78
2019-06-01T07:10:01.037Z,100325.15
2019-06-01T07:12:33.619Z,100325.09
2019-06-01T07:15:06.881Z,100330.55
2019-06-01T07:17:39.455Z,100326.53
2019-06-01T07:20:12.674Z,100327.80
2019-06-01T07:22:45.263Z,100327.75
2019-06-01T07:25:18.278Z,100329.74
2019-06-01T07:27:50.825Z,100330.64
2019-06-01T07:30:24.246Z,100325.03
2019-06-01T07:32:56.933Z,100337.23
2019-06-01T07:35:29.304Z,100328.87
2019-06-01T07:38:01.774Z,100329.05
2019-06-01T07:40:34.149Z,100321.46
2019-06-01T07:43:06.714Z,100331.05
2019-06-01T07:45:39.069Z,100329.34
2019-06-01T07:48:11.565Z,100330.58
2019-06-01T07:50:45.259Z,100333.91
2019-06-01T07:53:17.757Z,100323.98
2019-06-01T07:55:50.255Z,100326.13
2019-06-01T07:58:22.621Z,100329.10
2019-06-01T08:00:55.043Z,100324.72
2019-06-01T08:03:30.906Z,100322.97
2019-06-01T08:06:01.667Z,100326.67
2019-06-01T08:08:34.219Z,100326.15
2019-06-01T08:11:06.605Z,100324.54
2019-06-01T08:13:40.857Z,100331.23
2019-06-01T08:16:13.313Z,100332.95
2019-06-01T08:18:45.882Z,100322.25
2019-06-01T08:21:19.680Z,100320.12
2019-06-01T08:23:52.218Z,100319.33
2019-06-01T08:26:24.591Z,100321.83
2019-06-01T08:28:57.060Z,100316.56
2019-06-01T08:31:31.836Z,100320.21
2019-06-01T08:34:04.046Z,100318.97
2019-06-01T08:36:36.509Z,100310.67
2019-06-01T08:39:09.072Z,100312.80
2019-06-01T08:41:41.458Z,100317.86
2019-06-01T08:44:13.927Z,100314.66
2019-06-01T08:46:47.164Z,100307.50
2019-06-01T08:49:19.660Z,100307.91
2019-06-01T08:51:54.227Z,100310.12
2019-06-01T08:54:28.136Z,100306.39
2019-06-01T08:57:00.625Z,100317.13
2019-06-01T08:59:34.584Z,100316.56
2019-06-01T09:02:08.136Z,100310.50
2019-06-01T09:04:40.656Z,100315.91
2019-06-01T09:07:13.025Z,100313.42
2019-06-01T09:09:46.465Z,100313.47
2019-06-01T09:12:18.799Z,100313.53
2019-06-01T09:14:52.599Z,100308.53
2019-06-01T09:17:25.363Z,100306.97
2019-06-01T09:19:57.910Z,100309.91
2019-06-01T09:22:30.059Z,100311.02
2019-06-01T09:25:02.634Z,100307.72
2019-06-01T09:27:36.118Z,100303.08
2019-06-01T09:30:09.278Z,100300.03
2019-06-01T09:32:41.514Z,100296.42
2019-06-01T09:35:13.947Z,100303.98
2019-06-01T09:37:46.325Z,100289.59
2019-06-01T09:40:19.928Z,100296.58
2019-06-01T09:42:52.333Z,100295.75
2019-06-01T09:45:25.547Z,100294.84
2019-06-01T09:47:57.990Z,100296.26
2019-06-01T09:50:31.333Z,100282.81
2019-06-01T09:53:04.243Z,100287.63
2019-06-01T09:55:36.531Z,100288.67
2019-06-01T09:58:09.094Z,100288.30
2019-06-01T10:00:43.782Z,100280.64
2019-06-01T10:03:15.941Z,100280.70
2019-06-01T10:06:01.228Z,100273.09
2019-06-01T10:08:23.155Z,100266.09
2019-06-01T10:10:59.202Z,100266.98
2019-06-01T10:13:32.923Z,100273.78
2019-06-01T10:16:05.548Z,100270.84
2019-06-01T10:18:38.953Z,100272.00
2019-06-01T10:21:27.742Z,100273.59
2019-06-01T10:24:00.152Z,100273.91
2019-06-01T10:26:34.020Z,100281.42
2019-06-01T10:29:06.629Z,100280.05
2019-06-01T10:31:40.598Z,100283.86
2019-06-01T10:34:13.070Z,100277.19
2019-06-01T10:36:45.448Z,100265.32
2019-06-01T10:39:19.721Z,100256.88
2019-06-01T10:41:53.807Z,100267.87
2019-06-01T10:44:26.223Z,100252.87
2019-06-01T10:46:58.537Z,100256.03
2019-06-01T10:49:31.806Z,100250.98
2019-06-01T10:52:05.033Z,100249.91
2019-06-01T10:54:38.315Z,100253.42
2019-06-01T10:57:10.865Z,100247.91
2019-06-01T10:59:43.334Z,100254.10
2019-06-01T11:02:16.775Z,100256.84
2019-06-01T11:04:49.256Z,100240.80
2019-06-01T11:07:21.734Z,100245.47
2019-06-01T11:09:54.109Z,100237.89
2019-06-01T11:12:26.421Z,100242.11
2019-06-01T11:14:58.802Z,100234.47
2019-06-01T11:17:31.099Z,100238.83
2019-06-01T11:20:04.881Z,100231.70
2019-06-01T11:22:37.583Z,100233.58
2019-06-01T11:25:10.119Z,100224.39
2019-06-01T11:27:44.076Z,100227.30
2019-06-01T11:30:16.905Z,100231.94
2019-06-01T11:32:50.781Z,100236.91
2019-06-01T11:35:23.489Z,100237.48
2019-06-01T11:37:55.859Z,100239.73
2019-06-01T11:40:28.432Z,100241.53
2019-06-01T11:43:01.866Z,100228.78
2019-06-01T11:45:34.857Z,100224.55
2019-06-01T11:48:07.484Z,100213.66
2019-06-01T11:50:43.116Z,100214.09
2019-06-01T11:53:16.947Z,100228.63
2019-06-01T11:55:49.327Z,100219.00
2019-06-01T11:58:21.900Z,100221.45
2019-06-01T12:00:54.931Z,100212.29
2019-06-01T12:03:27.169Z,100205.11
2019-06-01T12:05:59.884Z,100210.09
2019-06-01T12:08:34.120Z,100201.43
2019-06-01T12:11:06.289Z,100200.83
2019-06-01T12:13:42.290Z,100192.72
2019-06-01T12:16:14.757Z,100195.18
2019-06-01T12:18:47.024Z,100181.36
2019-06-01T12:21:19.333Z,100186.83
2019-06-01T12:23:51.578Z,100187.59
2019-06-01T12:26:23.921Z,100187.36
2019-06-01T12:28:57.772Z,100191.41
2019-06-01T12:31:43.809Z,100195.67
2019-06-01T12:34:17.001Z,100189.11
2019-06-01T12:36:49.459Z,100185.03
2019-06-01T12:39:22.551Z,100187.30
2019-06-01T12:41:54.961Z,100185.92
2019-06-01T12:44:27.295Z,100186.27
2019-06-01T12:46:59.683Z,100185.76
2019-06-01T12:49:32.033Z,100187.11
2019-06-01T12:52:06.610Z,100186.30
2019-06-01T12:54:38.199Z,100191.94
2019-06-01T12:57:10.492Z,100184.98
2019-06-01T12:59:43.254Z,100190.11
2019-06-01T13:02:16.058Z,100185.91
2019-06-01T13:04:49.246Z,100185.18
2019-06-01T13:07:21.735Z,100195.75
2019-06-01T13:09:54.542Z,100192.58
2019-06-01T13:12:27.004Z,100192.55
2019-06-01T13:14:59.313Z,100197.92
2019-06-01T13:17:31.776Z,100196.97
2019-06-01T13:20:08.996Z,100191.94
2019-06-01T13:22:41.377Z,100192.08
2019-06-01T13:25:15.394Z,100191.66
2019-06-01T13:27:48.848Z,100192.34
2019-06-01T13:30:21.438Z,100193.89
2019-06-01T13:32:53.744Z,100191.55
2019-06-01T13:35:26.579Z,100195.23
2019-06-01T13:38:11.597Z,100189.18
2019-06-01T13:40:33.569Z,100193.31
2019-06-01T13:43:07.426Z,100195.86
2019-06-01T13:45:41.007Z,100192.11
2019-06-01T13:48:13.251Z,100194.97
2019-06-01T13:50:45.807Z,100188.66
2019-06-01T13:53:19.321Z,100190.88
2019-06-01T13:55:52.800Z,100181.03
2019-06-01T13:58:25.420Z,100183.77
2019-06-01T14:00:57.927Z,100179.70
2019-06-01T14:03:31.354Z,100182.34
2019-06-01T14:06:05.360Z,100178.36
2019-06-01T14:08:37.635Z,100179.86
2019-06-01T14:11:10.141Z,100176.92
2019-06-01T14:13:42.683Z,100172.16
2019-06-01T14:16:15.140Z,100161.70
2019-06-01T14:18:47.721Z,100157.65
2019-06-01T14:21:20.487Z,100148.64
2019-06-01T14:23:54.104Z,100149.19
2019-06-01T14:26:26.603Z,100149.05
2019-06-01T14:28:58.941Z,100147.50
2019-06-01T14:31:31.440Z,100146.71
2019-06-01T14:34:03.791Z,100146.39
2019-06-01T14:36:36.190Z,100144.30
2019-06-01T14:39:08.996Z,100152.45
2019-06-01T14:41:41.517Z,100148.13
2019-06-01T14:44:13.926Z,100145.76
2019-06-01T14:46:55.116Z,100147.66
2019-06-01T14:49:20.846Z,100146.22
2019-06-01T14:51:53.681Z,100152.05
2019-06-01T14:54:26.312Z,100148.14
2019-06-01T14:56:58.756Z,100146.28
2019-06-01T14:59:31.118Z,100151.83
2019-06-01T15:02:03.761Z,100154.80
2019-06-01T15:04:37.567Z,100151.83
2019-06-01T15:07:10.038Z,100151.42
2019-06-01T15:09:42.526Z,100147.33
2019-06-01T15:12:15.556Z,100147.83
2019-06-01T15:14:48.503Z,100149.97
2019-06-01T15:17:25.098Z,100143.70
2019-06-01T15:19:58.311Z,100143.31
2019-06-01T15:22:31.083Z,100139.69
2019-06-01T15:25:04.957Z,100137.86
2019-06-01T15:27:37.560Z,100135.89
2019-06-01T15:30:14.303Z,100135.59
2019-06-01T15:32:46.866Z,100134.60
2019-06-01T15:35:19.294Z,100138.73
2019-06-01T15:37:56.234Z,100134.30
2019-06-01T15:40:27.578Z,100136.08
2019-06-01T15:43:01.424Z,100128.61
2019-06-01T15:45:34.470Z,100127.39
2019-06-01T15:48:06.961Z,100120.03
2019-06-01T15:50:39.633Z,100117.07
2019-06-01T15:53:12.413Z,100117.27
2019-06-01T15:55:44.757Z,100127.19
2019-06-01T15:58:17.321Z,100127.93
2019-06-01T16:00:49.685Z,100131.76
2019-06-01T16:03:22.223Z,100136.55
2019-06-01T16:05:55.012Z,100135.69
2019-06-01T16:08:29.456Z,100136.77
2019-06-01T16:11:04.643Z,100130.83
2019-06-01T16:13:36.124Z,100134.05
2019-06-01T16:16:08.629Z,100137.89
2019-06-01T16:18:41.090Z,100153.58
2019-06-01T16:21:15.193Z,100147.73
2019-06-01T16:23:50.576Z,100144.27
2019-06-01T16:26:23.155Z,100146.48
2019-06-01T16:28:56.329Z,100139.52
2019-06-01T16:31:30.621Z,100153.88
2019-06-01T16:34:03.192Z,100152.26
2019-06-01T16:36:36.198Z,100151.47
2019-06-01T16:39:10.087Z,100147.93
2019-06-01T16:41:42.714Z,100153.23
2019-06-01T16:44:19.764Z,100154.72
2019-06-01T16:46:50.884Z,100151.63
2019-06-01T16:49:27.241Z,100146.23
2019-06-01T16:52:01.154Z,100145.96
2019-06-01T16:54:35.483Z,100140.38
2019-06-01T16:57:09.441Z,100137.25
2019-06-01T16:59:42.003Z,100147.39
2019-06-01T17:02:14.386Z,100143.33
2019-06-01T17:04:48.486Z,100140.81
2019-06-01T17:07:20.915Z,100144.56
2019-06-01T17:09:53.496Z,100146.06
2019-06-01T17:12:25.923Z,100140.84
2019-06-01T17:15:00.830Z,100138.55
2019-06-01T17:17:34.607Z,100135.22
2019-06-01T17:20:09.469Z,100143.57
2019-06-01T17:22:42.173Z,100143.36
2019-06-01T17:25:14.909Z,100137.78
2019-06-01T17:27:47.347Z,100131.94
2019-06-01T17:30:19.925Z,100135.47
2019-06-01T17:32:52.363Z,100148.40
2019-06-01T17:35:31.434Z,100153.42
2019-06-01T17:38:05.005Z,100146.03
2019-06-01T17:40:43.183Z,100143.03
2019-06-01T17:43:14.842Z,100146.88
2019-06-01T17:45:47.584Z,100149.37
2019-06-01T17:48:26.644Z,100156.97
2019-06-01T17:50:55.409Z,100157.41
2019-06-01T17:53:27.939Z,100166.35
2019-06-01T17:56:01.861Z,100166.35
2019-06-01T17:58:34.703Z,100179.27
2019-06-01T18:01:08.118Z,100186.44
2019-06-01T18:03:42.733Z,100181.55
2019-06-01T18:06:17.406Z,100188.09
2019-06-01T18:08:51.539Z,100185.03
2019-06-01T18:11:24.276Z,100184.11
2019-06-01T18:13:58.147Z,100188.79
2019-06-01T18:16:33.160Z,100188.70
2019-06-01T18:19:08.410Z,100187.56
2019-06-01T18:21:42.219Z,100194.33
2019-06-01T18:24:18.203Z,100210.79
2019-06-01T18:26:51.100Z,100201.41
2019-06-01T18:29:24.327Z,100205.99
2019-06-01T18:31:58.765Z,100206.61
2019-06-01T18:34:31.902Z,100216.73
2019-06-01T18:37:11.499Z,100214.42
2019-06-01T18:39:48.236Z,100218.91
2019-06-01T18:42:24.148Z,100217.47
2019-06-01T18:44:58.761Z,100224.33
2019-06-01T18:47:32.756Z,100227.43
2019-06-01T18:50:09.892Z,100228.38
2019-06-01T18:52:44.588Z,100233.89
2019-06-01T18:55:18.880Z,100239.21
2019-06-01T18:57:54.502Z,100243.15
2019-06-01T19:00:27.691Z,100245.64
2019-06-01T19:03:00.723Z,100247.00
2019-06-01T19:05:35.025Z,100250.44
2019-06-01T19:08:09.286Z,100250.87
2019-06-01T19:10:42.730Z,100250.66
2019-06-01T19:13:16.011Z,100252.21
2019-06-01T19:15:50.839Z,100267.63
2019-06-01T19:18:24.047Z,100279.18
2019-06-01T19:20:57.045Z,100278.57
2019-06-01T19:23:30.346Z,100274.83
2019-06-01T19:26:03.468Z,100283.34
2019-06-01T19:28:36.456Z,100291.98
2019-06-01T19:31:11.122Z,100308.64
2019-06-01T19:33:44.400Z,100318.20
2019-06-01T19:36:21.993Z,100337.14
2019-06-01T19:38:55.826Z,100344.96
2019-06-01T19:41:43.799Z,100359.59
2019-06-01T19:44:02.914Z,100361.98
2019-06-01T19:46:35.426Z,100375.47
2019-06-01T19:49:10.945Z,100377.52
2019-06-01T19:51:44.307Z,100400.14
2019-06-01T19:54:17.081Z,100409.82
2019-06-01T19:56:50.103Z,100415.38
2019-06-01T19:59:22.955Z,100440.97
2019-06-01T20:01:56.095Z,100444.31
2019-06-01T20:04:28.845Z,100456.79
2019-06-01T20:07:02.827Z,100447.62
2019-06-01T20:09:35.263Z,100440.55
2019-06-01T20:12:12.881Z,100423.94
2019-06-01T20:14:41.858Z,100445.26
2019-06-01T20:17:15.552Z,100456.31
2019-06-01T20:19:48.075Z,100460.34
2019-06-01T20:22:21.289Z,100451.95
2019-06-01T20:24:55.337Z,100460.68
2019-06-01T20:27:28.640Z,100457.29
2019-06-01T20:30:01.084Z,100450.77
2019-06-01T20:32:34.103Z,100439.03
2019-06-01T20:35:06.725Z,100419.75
2019-06-01T20:37:39.458Z,100423.94
2019-06-01T20:40:14.240Z,100423.08
2019-06-01T20:42:46.875Z,100411.13
2019-06-01T20:45:20.927Z,100409.56
2019-06-01T20:47:53.609Z,100405.42
2019-06-01T20:50:34.926Z,100406.55
2019-06-01T20:53:07.520Z,100400.25
2019-06-01T20:55:39.959Z,100394.14
2019-06-01T20:58:13.747Z,100394.36
2019-06-01T21:00:46.563Z,100396.09
2019-06-01T21:03:19.760Z,100397.98
2019-06-01T21:05:52.405Z,100397.58
2019-06-01T21:08:24.918Z,100394.13
2019-06-01T21:10:57.459Z,100384.71
2019-06-01T21:13:29.964Z,100378.36
2019-06-01T21:16:02.349Z,100370.50
2019-06-01T21:18:34.849Z,100378.73
2019-06-01T21:21:09.384Z,100383.60
2019-06-01T21:23:41.895Z,100384.94
2019-06-01T21:26:18.933Z,100385.28
2019-06-01T21:28:51.596Z,100386.27
2019-06-01T21:31:25.378Z,100370.84
2019-06-01T21:33:58.253Z,100373.81
2019-06-01T21:36:30.775Z,100366.74
2019-06-01T21:39:03.820Z,100357.66
2019-06-01T21:41:37.710Z,100360.56
2019-06-01T21:44:10.295Z,100363.52
2019-06-01T21:46:42.762Z,100360.83
2019-06-01T21:49:15.618Z,100357.50
2019-06-01T21:51:48.198Z,100350.64
2019-06-01T21:54:21.970Z,100350.80
2019-06-01T21:56:55.605Z,100340.23
2019-06-01T21:59:28.168Z,100341.45
2019-06-01T22:02:00.608Z,100335.39
2019-06-01T22:04:33.094Z,100333.69
2019-06-01T22:07:06.542Z,100332.02
2019-06-01T22:09:39.057Z,100335.31
2019-06-01T22:12:11.514Z,100335.96
2019-06-01T22:14:44.057Z,100333.95
2019-06-01T22:17:17.491Z,100327.59
2019-06-01T22:19:50.099Z,100324.86
2019-06-01T22:22:23.802Z,100326.53
2019-06-01T22:24:56.438Z,100328.68
2019-06-01T22:27:28.806Z,100323.62
2019-06-01T22:30:01.214Z,100325.45
2019-06-01T22:32:34.858Z,100330.77
2019-06-01T22:35:09.747Z,100325.86
2019-06-01T22:37:42.179Z,100325.70
2019-06-01T22:40:15.296Z,100330.37
2019-06-01T22:42:47.757Z,100325.86
2019-06-01T22:45:20.171Z,100330.02
2019-06-01T22:47:52.527Z,100330.30
2019-06-01T22:50:24.971Z,100322.08
2019-06-01T22:52:57.433Z,100327.91
2019-06-01T22:55:29.928Z,100318.78
2019-06-01T22:58:02.375Z,100321.52
2019-06-01T23:00:34.867Z,100317.85
2019-06-01T23:03:08.081Z,100320.18
2019-06-01T23:05:41.815Z,100325.42
2019-06-01T23:08:14.226Z,100336.69
2019-06-01T23:10:46.650Z,100335.09
2019-06-01T23:13:19.077Z,100342.46
2019-06-01T23:15:51.567Z,100339.79
2019-06-01T23:18:24.176Z,100355.34
2019-06-01T23:20:56.568Z,100364.02
2019-06-01T23:23:30.149Z,100377.53
2019-06-01T23:26:02.924Z,100379.36
2019-06-01T23:28:38.649Z,100377.69
2019-06-01T23:31:09.498Z,100384.02
2019-06-01T23:33:41.881Z,100373.63
2019-06-01T23:36:14.484Z,100377.97
2019-06-01T23:38:46.915Z,100378.78
2019-06-01T23:41:19.384Z,100374.27
2019-06-01T23:43:51.763Z,100372.94
2019-06-01T23:46:24.924Z,100369.02
2019-06-01T23:48:57.597Z,100356.14
2019-06-01T23:51:31.809Z,100352.72
2019-06-01T23:54:04.365Z,100352.01
2019-06-01T23:56:36.785Z,100345.58
2019-06-01T23:59:09.133Z,100346.58
